createdAt,value
2023-02-24T00:02:03.640Z,28.42
2023-02-24T00:04:40.064Z,23.98
2023-02-24T00:07:11.034Z,26.45
2023-02-24T00:09:40.465Z,27.02
2023-02-24T00:12:10.219Z,32.95
2023-02-24T00:14:38.876Z,28.25
2023-02-24T00:17:10.162Z,34.15
2023-02-24T00:19:37.332Z,33.40
2023-02-24T00:22:05.575Z,32.45
2023-02-24T00:24:32.528Z,27.88
2023-02-24T00:27:01.140Z,34.75
2023-02-24T00:29:29.178Z,29.13
2023-02-24T00:32:00.922Z,28.15
2023-02-24T00:34:29.504Z,30.38
2023-02-24T00:36:57.097Z,27.13
2023-02-24T00:39:33.168Z,24.85
2023-02-24T00:42:04.777Z,28.05
2023-02-24T00:44:39.009Z,28.60
2023-02-24T00:47:07.161Z,30.23
2023-02-24T00:49:35.998Z,24.92
2023-02-24T00:52:06.710Z,28.52
2023-02-24T00:54:36.541Z,28.08
2023-02-24T00:57:03.355Z,27.80
2023-02-24T00:59:30.091Z,29.10
2023-02-24T01:01:56.808Z,27.40
2023-02-24T01:04:23.518Z,26.33
2023-02-24T01:06:52.407Z,30.63
2023-02-24T01:09:20.810Z,25.17
2023-02-24T01:12:07.642Z,28.67
2023-02-24T01:14:35.765Z,28.80
2023-02-24T01:17:03.725Z,25.95
2023-02-24T01:19:31.900Z,28.75
2023-02-24T01:22:01.221Z,27.00
2023-02-24T01:24:33.415Z,29.60
2023-02-24T01:27:00.120Z,29.77
2023-02-24T01:29:27.563Z,29.38
2023-02-24T01:31:58.201Z,31.50
2023-02-24T01:34:26.946Z,28.58
2023-02-24T01:36:54.149Z,29.20
2023-02-24T01:39:21.169Z,27.67
2023-02-24T01:41:53.191Z,31.80
2023-02-24T01:44:22.913Z,31.15
2023-02-24T01:46:52.109Z,26.80
2023-02-24T01:49:41.436Z,32.08
2023-02-24T01:52:40.720Z,29.13
2023-02-24T01:55:23.279Z,31.95
2023-02-24T01:57:51.108Z,26.80
2023-02-24T02:00:37.241Z,32.03
2023-02-24T02:03:29.800Z,33.50
2023-02-24T02:06:03.689Z,30.52
2023-02-24T02:08:30.664Z,34.13
2023-02-24T02:11:01.693Z,34.33
2023-02-24T02:13:28.556Z,38.03
2023-02-24T02:16:03.082Z,29.70
2023-02-24T02:18:38.516Z,33.03
2023-02-24T02:21:19.072Z,35.78
2023-02-24T02:24:07.526Z,32.15
2023-02-24T02:27:03.605Z,29.15
2023-02-24T02:30:17.169Z,33.17
2023-02-24T02:33:02.570Z,33.63
2023-02-24T02:35:38.073Z,35.53
2023-02-24T02:38:15.305Z,36.97
2023-02-24T02:40:47.279Z,36.30
2023-02-24T02:43:26.047Z,35.25
2023-02-24T02:45:57.610Z,39.72
2023-02-24T02:48:54.436Z,33.22
2023-02-24T02:51:33.442Z,34.50
2023-02-24T02:54:21.920Z,33.08
2023-02-24T02:56:51.372Z,36.05
2023-02-24T02:59:22.622Z,32.15
2023-02-24T03:02:11.837Z,30.75
2023-02-24T03:04:44.045Z,32.92
2023-02-24T03:07:11.116Z,34.47
2023-02-24T03:09:40.378Z,35.78
2023-02-24T03:12:16.217Z,35.17
2023-02-24T03:14:46.208Z,34.67
2023-02-24T03:17:21.663Z,36.10
2023-02-24T03:19:54.217Z,38.53
2023-02-24T03:22:25.835Z,38.58
2023-02-24T03:24:52.994Z,37.40
2023-02-24T03:27:28.166Z,40.80
2023-02-24T03:30:06.305Z,37.95
2023-02-24T03:32:55.059Z,34.47
2023-02-24T03:35:24.789Z,34.72
2023-02-24T03:37:53.419Z,36.95
2023-02-24T03:40:21.199Z,41.70
2023-02-24T03:42:49.137Z,35.08
2023-02-24T03:45:16.666Z,37.13
2023-02-24T03:47:46.840Z,39.13
2023-02-24T03:50:15.263Z,38.33
2023-02-24T03:53:04.174Z,35.92
2023-02-24T03:55:58.925Z,39.28
2023-02-24T03:58:41.941Z,33.65
2023-02-24T04:01:42.092Z,37.72
2023-02-24T04:04:19.898Z,39.17
2023-02-24T04:07:02.878Z,36.80
2023-02-24T04:09:51.183Z,34.83
2023-02-24T04:12:32.834Z,39.03
2023-02-24T04:15:12.850Z,38.08
2023-02-24T04:17:47.143Z,38.30
2023-02-24T04:20:21.165Z,37.95
2023-02-24T04:22:54.662Z,39.13
2023-02-24T04:25:25.011Z,38.17
2023-02-24T04:27:52.846Z,41.97
2023-02-24T04:30:20.254Z,38.38
2023-02-24T04:32:47.068Z,42.40
2023-02-24T04:35:15.713Z,39.55
2023-02-24T04:37:46.486Z,35.10
2023-02-24T04:40:17.629Z,36.17
2023-02-24T04:42:49.097Z,39.97
2023-02-24T04:45:17.239Z,36.72
2023-02-24T04:47:51.274Z,41.92
2023-02-24T04:50:25.683Z,37.25
2023-02-24T04:53:01.075Z,43.42
2023-02-24T04:55:33.133Z,38.97
2023-02-24T04:58:03.245Z,42.67
2023-02-24T05:00:41.539Z,48.75
2023-02-24T05:03:11.184Z,48.22
2023-02-24T05:05:38.006Z,46.63
2023-02-24T05:08:07.917Z,46.72
2023-02-24T05:10:45.501Z,49.25
2023-02-24T05:13:21.004Z,47.50
2023-02-24T05:15:48.363Z,53.30
2023-02-24T05:18:20.441Z,49.78
2023-02-24T05:21:12.286Z,56.28
2023-02-24T05:23:44.901Z,56.17
2023-02-24T05:26:17.280Z,53.38
2023-02-24T05:28:49.468Z,52.95
2023-02-24T05:31:18.906Z,53.93
2023-02-24T05:33:48.682Z,53.80
2023-02-24T05:36:17.567Z,55.97
2023-02-24T05:38:45.745Z,55.38
2023-02-24T05:41:17.945Z,54.40
2023-02-24T05:43:48.325Z,51.13
2023-02-24T05:46:16.489Z,57.22
2023-02-24T05:48:44.120Z,59.65
2023-02-24T05:51:12.579Z,56.92
2023-02-24T05:53:42.660Z,61.25
2023-02-24T05:56:10.199Z,57.60
2023-02-24T05:58:39.393Z,59.53
2023-02-24T06:01:16.206Z,62.33
2023-02-24T06:03:48.105Z,63.20
2023-02-24T06:06:18.193Z,60.17
2023-02-24T06:08:50.795Z,55.35
2023-02-24T06:11:21.043Z,58.75
2023-02-24T06:13:48.071Z,54.92
2023-02-24T06:16:17.081Z,62.83
2023-02-24T06:18:44.409Z,58.38
2023-02-24T06:21:17.130Z,55.38
2023-02-24T06:23:45.297Z,57.22
2023-02-24T06:26:13.209Z,56.25
2023-02-24T06:28:43.322Z,54.92
2023-02-24T06:31:11.101Z,56.53
2023-02-24T06:33:41.970Z,58.85
2023-02-24T06:36:08.823Z,56.65
2023-02-24T06:38:36.539Z,53.85
2023-02-24T06:41:11.043Z,59.53
2023-02-24T06:43:43.436Z,57.97
2023-02-24T06:46:15.514Z,65.55
2023-02-24T06:48:42.492Z,59.20
2023-02-24T06:51:16.465Z,64.35
2023-02-24T06:53:43.633Z,63.65
2023-02-24T06:56:19.870Z,64.10
2023-02-24T06:58:56.941Z,63.17
2023-02-24T07:01:26.020Z,62.03
2023-02-24T07:04:02.738Z,66.18
2023-02-24T07:06:34.798Z,67.65
2023-02-24T07:09:07.230Z,65.53
2023-02-24T07:11:35.011Z,70.03
2023-02-24T07:14:02.550Z,68.45
2023-02-24T07:16:29.351Z,73.32
2023-02-24T07:18:56.975Z,70.65
2023-02-24T07:21:25.844Z,66.03
2023-02-24T07:23:58.871Z,68.05
2023-02-24T07:26:26.923Z,63.13
2023-02-24T07:28:58.193Z,65.45
2023-02-24T07:31:26.067Z,63.83
2023-02-24T07:34:02.163Z,64.60
2023-02-24T07:36:30.532Z,63.58
2023-02-24T07:38:58.779Z,60.80
2023-02-24T07:41:26.518Z,55.97
2023-02-24T07:43:54.575Z,61.90
2023-02-24T07:46:28.127Z,63.17
2023-02-24T07:48:56.416Z,58.53
2023-02-24T07:51:24.315Z,59.22
2023-02-24T07:53:56.807Z,59.10
2023-02-24T07:56:31.113Z,61.10
2023-02-24T07:58:59.665Z,55.10
2023-02-24T08:01:30.017Z,57.03
2023-02-24T08:04:01.440Z,61.28
2023-02-24T08:06:39.137Z,57.70
2023-02-24T08:09:17.335Z,60.17
2023-02-24T08:11:54.417Z,55.45
2023-02-24T08:14:25.990Z,57.10
2023-02-24T08:16:59.570Z,53.60
2023-02-24T08:19:32.871Z,58.15
2023-02-24T08:22:27.647Z,56.45
2023-02-24T08:24:56.619Z,60.22
2023-02-24T08:27:25.149Z,52.72
2023-02-24T08:30:00.261Z,57.80
2023-02-24T08:32:35.933Z,52.38
2023-02-24T08:35:05.528Z,63.78
2023-02-24T08:37:47.167Z,56.83
2023-02-24T08:40:36.167Z,55.53
2023-02-24T08:43:17.506Z,58.63
2023-02-24T08:45:51.166Z,60.30
2023-02-24T08:48:27.001Z,61.90
2023-02-24T08:51:22.463Z,62.33
2023-02-24T08:53:54.087Z,61.05
2023-02-24T08:56:26.119Z,57.83
2023-02-24T08:58:57.438Z,53.97
2023-02-24T09:01:27.089Z,51.42
2023-02-24T09:03:56.180Z,55.47
2023-02-24T09:06:35.296Z,51.70
2023-02-24T09:09:20.421Z,49.00
2023-02-24T09:11:49.984Z,56.78
2023-02-24T09:14:38.465Z,49.40
2023-02-24T09:17:11.135Z,47.85
2023-02-24T09:22:27.813Z,54.88
2023-02-24T09:25:14.383Z,48.65
2023-02-24T09:27:42.391Z,51.22
2023-02-24T09:30:33.404Z,52.42
2023-02-24T09:33:03.210Z,55.90
2023-02-24T09:35:41.942Z,50.08
2023-02-24T09:38:08.675Z,59.20
2023-02-24T09:40:40.249Z,55.35
2023-02-24T09:43:17.757Z,57.65
2023-02-24T09:46:14.968Z,50.88
2023-02-24T09:49:05.409Z,52.85
2023-02-24T09:51:42.288Z,48.42
2023-02-24T09:54:24.613Z,46.38
2023-02-24T09:57:08.349Z,45.40
2023-02-24T09:59:35.123Z,50.85
2023-02-24T10:02:28.548Z,48.30
2023-02-24T10:07:39.842Z,39.33
2023-02-24T10:10:30.682Z,45.75
2023-02-24T10:13:06.383Z,38.22
2023-02-24T10:15:59.346Z,38.90
2023-02-24T10:18:43.962Z,36.42
2023-02-24T10:21:49.925Z,35.95
2023-02-24T10:24:22.948Z,30.38
2023-02-24T10:30:20.053Z,25.02
2023-02-24T10:33:01.392Z,30.10
2023-02-24T10:35:33.857Z,35.97
2023-02-24T10:38:05.586Z,28.75
2023-02-24T10:40:46.952Z,31.60
2023-02-24T10:43:30.274Z,31.88
2023-02-24T10:46:17.159Z,34.65
2023-02-24T10:49:00.588Z,43.42
2023-02-24T10:54:25.242Z,46.83
2023-02-24T10:57:14.992Z,56.42
2023-02-24T11:00:16.102Z,51.75
2023-02-24T11:03:08.613Z,53.58
2023-02-24T11:05:56.528Z,55.60
2023-02-24T11:08:41.685Z,54.85
2023-02-24T11:11:26.028Z,50.20
2023-02-24T11:14:11.902Z,51.72
2023-02-24T11:17:12.805Z,50.40
2023-02-24T11:19:46.889Z,52.63
2023-02-24T11:22:15.523Z,54.47
2023-02-24T11:24:44.835Z,58.67
2023-02-24T11:27:11.844Z,63.28
2023-02-24T11:29:46.505Z,53.92
2023-02-24T11:32:32.480Z,54.03
2023-02-24T11:35:23.645Z,54.00
2023-02-24T11:37:51.454Z,52.08
2023-02-24T11:40:25.451Z,52.80
2023-02-24T11:43:09.372Z,58.10
2023-02-24T11:45:57.501Z,52.30
2023-02-24T11:48:27.153Z,54.75
2023-02-24T11:50:56.307Z,64.35
2023-02-24T11:53:29.412Z,55.08
2023-02-24T11:58:45.752Z,53.88
2023-02-24T12:01:33.778Z,53.20
2023-02-24T12:04:03.620Z,53.35
2023-02-24T12:06:38.521Z,56.78
2023-02-24T12:09:14.386Z,60.50
2023-02-24T12:11:54.395Z,49.80
2023-02-24T12:14:40.564Z,52.50
2023-02-24T12:17:23.419Z,51.83
2023-02-24T12:20:20.115Z,51.63
2023-02-24T12:22:52.488Z,57.53
2023-02-24T12:25:20.675Z,55.25
2023-02-24T12:28:14.590Z,46.33
2023-02-24T12:30:51.293Z,49.38
2023-02-24T12:33:37.579Z,47.60
2023-02-24T12:36:48.828Z,54.10
2023-02-24T12:39:21.410Z,45.38
2023-02-24T12:42:07.770Z,49.78
2023-02-24T12:45:02.514Z,52.53
2023-02-24T12:47:32.383Z,42.15
2023-02-24T12:50:02.088Z,45.15
2023-02-24T12:52:44.247Z,48.67
2023-02-24T12:55:34.601Z,42.53
2023-02-24T12:58:31.494Z,48.92
2023-02-24T13:01:29.098Z,49.67
2023-02-24T13:04:30.905Z,45.75
2023-02-24T13:07:19.013Z,41.20
2023-02-24T13:09:55.791Z,41.88
2023-02-24T13:12:50.419Z,41.88
2023-02-24T13:15:25.679Z,39.35
2023-02-24T13:17:54.801Z,41.33
2023-02-24T13:20:43.039Z,46.00
2023-02-24T13:23:20.335Z,43.35
2023-02-24T13:25:51.435Z,47.70
2023-02-24T13:28:31.255Z,45.35
2023-02-24T13:31:14.383Z,48.38
2023-02-24T13:33:43.296Z,39.78
2023-02-24T13:36:14.528Z,39.25
2023-02-24T13:38:42.744Z,42.72
2023-02-24T13:41:27.695Z,41.25
2023-02-24T13:44:01.394Z,38.35
2023-02-24T13:46:56.036Z,39.75
2023-02-24T13:49:27.262Z,44.70
2023-02-24T13:52:04.747Z,42.35
2023-02-24T13:54:59.101Z,45.38
2023-02-24T13:57:25.918Z,44.42
2023-02-24T13:59:58.040Z,44.97
2023-02-24T14:02:29.956Z,36.87
2023-02-24T14:04:58.599Z,40.00
2023-02-24T14:07:27.700Z,39.75
2023-02-24T14:09:59.630Z,48.50
2023-02-24T14:12:27.995Z,41.03
2023-02-24T14:14:54.687Z,40.42
2023-02-24T14:17:24.536Z,39.83
2023-02-24T14:19:51.273Z,38.80
2023-02-24T14:22:19.861Z,39.10
2023-02-24T14:24:46.911Z,34.45
2023-02-24T14:27:25.983Z,40.55
2023-02-24T14:29:52.915Z,34.97
2023-02-24T14:32:22.124Z,40.50
2023-02-24T14:34:48.963Z,34.63
2023-02-24T14:37:17.357Z,36.70
2023-02-24T14:39:56.573Z,39.42
2023-02-24T14:42:23.485Z,31.75
2023-02-24T14:44:52.304Z,38.60
2023-02-24T14:47:21.166Z,37.47
2023-02-24T14:50:02.615Z,34.42
2023-02-24T14:52:36.371Z,39.42
2023-02-24T14:55:08.070Z,33.08
2023-02-24T14:58:14.128Z,33.80
2023-02-24T15:00:48.333Z,32.80
2023-02-24T15:03:35.828Z,40.28
2023-02-24T15:06:07.861Z,35.20
2023-02-24T15:08:46.666Z,31.65
2023-02-24T15:11:16.344Z,35.85
2023-02-24T15:13:48.489Z,31.25
2023-02-24T15:16:21.682Z,32.27
2023-02-24T15:18:53.624Z,31.38
2023-02-24T15:21:30.374Z,37.50
2023-02-24T15:24:01.708Z,33.65
2023-02-24T15:26:31.499Z,30.23
2023-02-24T15:29:02.452Z,28.55
2023-02-24T15:31:29.662Z,26.60
2023-02-24T15:34:01.335Z,30.02
2023-02-24T15:36:32.785Z,26.15
2023-02-24T15:39:12.728Z,31.13
2023-02-24T15:41:44.539Z,32.30
2023-02-24T15:44:28.408Z,27.13
2023-02-24T15:46:56.341Z,26.85
2023-02-24T15:49:23.174Z,24.83
2023-02-24T15:51:51.353Z,27.63
2023-02-24T15:54:21.058Z,25.77
2023-02-24T15:56:47.923Z,26.15
2023-02-24T15:59:15.920Z,22.75
2023-02-24T16:01:42.574Z,22.83
2023-02-24T16:04:12.275Z,24.30
2023-02-24T16:06:41.834Z,30.73
2023-02-24T16:09:14.205Z,23.73
2023-02-24T16:11:42.158Z,29.80
2023-02-24T16:14:10.175Z,28.55
2023-02-24T16:16:37.879Z,25.90
2023-02-24T16:19:04.781Z,29.27
2023-02-24T16:21:34.705Z,25.38
2023-02-24T16:24:01.463Z,29.63
2023-02-24T16:26:28.156Z,28.90
2023-02-24T16:28:58.163Z,32.22
2023-02-24T16:31:26.236Z,37.28
2023-02-24T16:33:55.666Z,30.13
2023-02-24T16:36:24.320Z,28.25
2023-02-24T16:38:52.473Z,35.83
2023-02-24T16:41:19.309Z,32.42
2023-02-24T16:43:46.032Z,29.27
2023-02-24T16:46:25.219Z,28.13
2023-02-24T16:48:53.481Z,29.23
2023-02-24T16:51:31.234Z,27.77
2023-02-24T16:53:58.046Z,27.65
2023-02-24T16:56:24.858Z,30.30
2023-02-24T16:58:51.630Z,25.70
2023-02-24T17:01:21.012Z,34.83
2023-02-24T17:03:53.937Z,26.65
2023-02-24T17:06:23.866Z,33.05
2023-02-24T17:08:51.168Z,28.92
2023-02-24T17:11:19.939Z,27.80
2023-02-24T17:13:49.655Z,44.47
2023-02-24T17:16:17.735Z,60.63
2023-02-24T17:18:44.581Z,33.92
2023-02-24T17:21:15.393Z,27.63
2023-02-24T17:23:44.666Z,23.65
2023-02-24T17:26:15.456Z,27.00
2023-02-24T17:28:42.505Z,25.00
2023-02-24T17:31:09.336Z,23.52
2023-02-24T17:33:36.091Z,25.98
2023-02-24T17:36:02.732Z,26.58
2023-02-24T17:38:29.871Z,20.92
2023-02-24T17:40:58.037Z,24.15
2023-02-24T17:43:27.281Z,23.88
2023-02-24T17:45:53.984Z,23.15
2023-02-24T17:48:21.481Z,22.40
2023-02-24T17:50:48.566Z,21.77
2023-02-24T17:53:15.701Z,19.98
2023-02-24T17:55:55.878Z,21.98
2023-02-24T17:58:27.942Z,23.58
2023-02-24T18:00:54.806Z,19.30
2023-02-24T18:03:21.550Z,21.73
2023-02-24T18:05:48.494Z,22.27
2023-02-24T18:08:15.342Z,20.48
2023-02-24T18:10:42.222Z,18.75
2023-02-24T18:13:10.052Z,16.08
2023-02-24T18:15:38.858Z,16.63
2023-02-24T18:18:05.623Z,16.27
2023-02-24T18:20:32.369Z,18.63
2023-02-24T18:22:59.041Z,15.98
2023-02-24T18:25:25.657Z,18.27
2023-02-24T18:27:52.316Z,16.95
2023-02-24T18:30:19.222Z,21.77
2023-02-24T18:32:47.410Z,21.27
2023-02-24T18:35:15.933Z,20.92
2023-02-24T18:37:43.676Z,19.67
2023-02-24T18:40:11.226Z,21.75
2023-02-24T18:42:38.767Z,18.35
2023-02-24T18:45:06.630Z,17.92
2023-02-24T18:47:33.346Z,17.52
2023-02-24T18:49:59.999Z,19.65
2023-02-24T18:52:26.838Z,19.75
2023-02-24T18:54:55.707Z,20.13
2023-02-24T18:57:22.371Z,18.63
2023-02-24T18:59:50.358Z,18.48
2023-02-24T19:02:17.312Z,27.20
2023-02-24T19:04:46.006Z,19.52
2023-02-24T19:07:13.370Z,19.25
2023-02-24T19:09:42.850Z,23.73
2023-02-24T19:12:09.637Z,24.00
2023-02-24T19:14:37.329Z,20.65
2023-02-24T19:17:04.024Z,22.05
2023-02-24T19:19:30.731Z,19.48
2023-02-24T19:21:57.384Z,24.42
2023-02-24T19:24:24.170Z,24.35
2023-02-24T19:26:52.721Z,22.67
2023-02-24T19:29:20.539Z,21.80
2023-02-24T19:31:52.655Z,23.73
2023-02-24T19:34:19.650Z,30.40
2023-02-24T19:36:46.281Z,27.42
2023-02-24T19:39:14.623Z,27.25
2023-02-24T19:41:41.456Z,29.33
2023-02-24T19:44:08.244Z,27.27
2023-02-24T19:46:36.323Z,26.23
2023-02-24T19:49:03.645Z,30.60
2023-02-24T19:51:31.219Z,29.70
2023-02-24T19:54:00.106Z,27.77
2023-02-24T19:56:29.251Z,24.02
2023-02-24T19:58:57.046Z,27.98
2023-02-24T20:01:25.283Z,26.17
2023-02-24T20:03:54.544Z,29.55
2023-02-24T20:06:24.997Z,25.02
2023-02-24T20:08:52.678Z,27.42
2023-02-24T20:11:20.553Z,25.70
2023-02-24T20:13:47.471Z,30.15
2023-02-24T20:16:19.118Z,30.80
2023-02-24T20:18:46.233Z,29.25
2023-02-24T20:21:13.397Z,24.42
2023-02-24T20:23:40.579Z,29.40
2023-02-24T20:26:07.726Z,27.27
2023-02-24T20:28:34.405Z,29.63
2023-02-24T20:31:09.867Z,29.00
2023-02-24T20:33:41.152Z,28.67
2023-02-24T20:36:09.639Z,26.02
2023-02-24T20:38:38.149Z,24.40
2023-02-24T20:41:05.389Z,26.20
2023-02-24T20:43:32.532Z,28.42
2023-02-24T20:45:59.804Z,26.95
2023-02-24T20:48:27.008Z,28.02
2023-02-24T20:50:53.651Z,28.52
2023-02-24T20:53:20.299Z,27.42
2023-02-24T20:55:46.924Z,27.58
2023-02-24T20:58:13.595Z,29.48
2023-02-24T21:00:40.630Z,30.52
2023-02-24T21:03:12.043Z,27.13
2023-02-24T21:05:39.282Z,21.58
2023-02-24T21:08:06.227Z,13.75
2023-02-24T21:10:33.012Z,9.98
2023-02-24T21:13:00.927Z,9.70
2023-02-24T21:15:28.119Z,9.95
2023-02-24T21:17:54.886Z,8.13
2023-02-24T21:20:21.680Z,4.55
2023-02-24T21:22:48.693Z,2.20
2023-02-24T21:25:15.363Z,2.97
2023-02-24T21:27:42.066Z,2.70
2023-02-24T21:30:09.446Z,5.40
2023-02-24T21:32:36.535Z,4.57
2023-02-24T21:35:04.953Z,4.72
2023-02-24T21:37:32.887Z,3.17
2023-02-24T21:40:01.063Z,3.28
2023-02-24T21:42:27.854Z,6.90
2023-02-24T21:45:02.639Z,3.60
2023-02-24T21:47:32.462Z,4.90
2023-02-24T21:49:59.188Z,4.40
2023-02-24T21:52:25.947Z,5.60
2023-02-24T21:54:53.502Z,5.38
2023-02-24T21:57:21.283Z,5.88
2023-02-24T21:59:48.023Z,6.50
2023-02-24T22:02:16.928Z,6.88
2023-02-24T22:04:46.955Z,8.95
2023-02-24T22:07:13.736Z,5.60
2023-02-24T22:09:40.648Z,5.82
2023-02-24T22:12:07.366Z,6.22
2023-02-24T22:14:34.243Z,6.13
2023-02-24T22:17:01.204Z,6.40
2023-02-24T22:19:27.933Z,10.13
2023-02-24T22:21:57.965Z,7.72
2023-02-24T22:24:24.721Z,9.77
2023-02-24T22:26:51.452Z,9.93
2023-02-24T22:29:18.152Z,8.65
2023-02-24T22:31:49.567Z,10.18
2023-02-24T22:34:16.617Z,8.57
2023-02-24T22:36:43.593Z,9.10
2023-02-24T22:39:10.538Z,7.68
2023-02-24T22:41:38.436Z,9.63
2023-02-24T22:44:06.140Z,10.70
2023-02-24T22:46:34.929Z,10.52
2023-02-24T22:49:03.012Z,12.55
2023-02-24T22:51:30.034Z,10.85
2023-02-24T22:53:56.832Z,11.18
2023-02-24T22:56:26.127Z,12.57
2023-02-24T22:58:53.091Z,13.45
2023-02-24T23:01:28.479Z,11.65
2023-02-24T23:03:55.478Z,9.48
2023-02-24T23:06:23.932Z,9.23
2023-02-24T23:08:51.636Z,12.18
2023-02-24T23:11:24.975Z,10.90
2023-02-24T23:13:52.078Z,12.95
2023-02-24T23:16:27.536Z,8.63
2023-02-24T23:18:56.340Z,9.50
2023-02-24T23:21:25.385Z,10.43
2023-02-24T23:23:57.024Z,8.48
2023-02-24T23:26:51.921Z,12.55
2023-02-24T23:29:18.792Z,10.13
2023-02-24T23:31:46.142Z,11.35
2023-02-24T23:34:13.311Z,11.13
2023-02-24T23:36:43.694Z,9.10
2023-02-24T23:39:12.190Z,10.93
2023-02-24T23:41:39.203Z,11.50
2023-02-24T23:44:06.288Z,12.65
2023-02-24T23:46:33.954Z,8.93
2023-02-24T23:49:00.848Z,11.70
2023-02-24T23:51:35.817Z,12.93
2023-02-24T23:54:08.920Z,10.93
2023-02-24T23:56:36.597Z,9.85
2023-02-24T23:59:03.547Z,10.35
